GBXWS EGPA-EGPE
Flight info
| Callsign | GBXWS |
|---|---|
| Flight time | N/A |
| Altitude | 2500 |
| Route | EGPC DCT 582338N0030728W DCT 581800N0031706W DCT 574106N0041024W DCT 573231N0041239W DCT 572840N0040345W DCT EGPE |
| Aircraft | H500/L-VGDW/C |
Departure
| Time | 2026-04-22 18:07 |
|---|---|
| Airport | Kirkwall Airport (EGPA) |
Arrival
| Time | N/A |
|---|---|
| Airport | Inverness Airport (EGPE) |
| Time | Latitude | Longitude | Altitude | Speed | Heading |
|---|---|---|---|---|---|
| 2026-04-22 17:43 | 58.95770 | -2.91275 | 49 ft | 0 kts | 45° |
| 2026-04-22 17:44 | 58.95781 | -2.90961 | 45 ft | 0 kts | 87° |
| 2026-04-22 18:06 | 58.95800 | -2.90888 | 58 ft | 26 kts | 98° |
| 2026-04-22 18:06 | 58.95685 | -2.90177 | 49 ft | 81 kts | 121° |
| 2026-04-22 18:07 | 58.95310 | -2.89313 | 195 ft | 87 kts | 155° |
| 2026-04-22 18:07 | 58.94681 | -2.89027 | 268 ft | 106 kts | 181° |
| 2026-04-22 18:07 | 58.93941 | -2.89226 | 475 ft | 104 kts | 193° |
| 2026-04-22 18:07 | 58.93301 | -2.89637 | 812 ft | 92 kts | 201° |
| 2026-04-22 18:08 | 58.92681 | -2.90252 | 911 ft | 111 kts | 208° |
| 2026-04-22 18:08 | 58.91987 | -2.91175 | 784 ft | 131 kts | 215° |
| 2026-04-22 18:08 | 58.91555 | -2.92810 | 372 ft | 150 kts | 261° |
| 2026-04-22 18:08 | 58.91354 | -2.94686 | 616 ft | 110 kts | 239° |
| 2026-04-22 18:09 | 58.91130 | -2.95608 | 1634 ft | 47 kts | 212° |
| 2026-04-22 18:09 | 58.90965 | -2.96036 | 2339 ft | 35 kts | 183° |
| 2026-04-22 18:09 | 58.90816 | -2.96399 | 2960 ft | 36 kts | 203° |
| 2026-04-22 18:09 | 58.90574 | -2.96825 | 3460 ft | 62 kts | 196° |
| 2026-04-22 18:10 | 58.90073 | -2.97341 | 3612 ft | 106 kts | 194° |
| 2026-04-22 18:10 | 58.89297 | -2.97977 | 3564 ft | 130 kts | 193° |
| 2026-04-22 18:10 | 58.88431 | -2.98657 | 3561 ft | 137 kts | 194° |
| 2026-04-22 18:10 | 58.87533 | -2.99354 | 3563 ft | 140 kts | 194° |
| 2026-04-22 18:11 | 58.86622 | -3.00056 | 3566 ft | 142 kts | 193° |
| 2026-04-22 18:11 | 58.85711 | -3.00758 | 3538 ft | 136 kts | 190° |
| 2026-04-22 18:11 | 58.84836 | -3.01356 | 3240 ft | 135 kts | 188° |
| 2026-04-22 18:11 | 58.83931 | -3.01928 | 2872 ft | 138 kts | 188° |
| 2026-04-22 18:12 | 58.83012 | -3.02519 | 2474 ft | 140 kts | 189° |
| 2026-04-22 18:12 | 58.82083 | -3.03137 | 2014 ft | 141 kts | 190° |
| 2026-04-22 18:12 | 58.81477 | -3.03566 | 1920 ft | 137 kts | 192° |
| 2026-04-22 18:12 | 58.80372 | -3.04458 | 1929 ft | 122 kts | 193° |
| 2026-04-22 18:13 | 58.79611 | -3.05118 | 1941 ft | 118 kts | 193° |
| 2026-04-22 18:13 | 58.78865 | -3.05772 | 1946 ft | 117 kts | 193° |
| 2026-04-22 18:13 | 58.78124 | -3.06418 | 1948 ft | 117 kts | 193° |
| 2026-04-22 18:13 | 58.77385 | -3.07058 | 1949 ft | 116 kts | 193° |
| 2026-04-22 18:14 | 58.76657 | -3.07688 | 1949 ft | 116 kts | 193° |
| 2026-04-22 18:14 | 58.75919 | -3.08325 | 1949 ft | 116 kts | 193° |
| 2026-04-22 18:14 | 58.75182 | -3.08962 | 1949 ft | 116 kts | 193° |
| 2026-04-22 18:14 | 58.74443 | -3.09600 | 1949 ft | 117 kts | 192° |
| 2026-04-22 18:15 | 58.73679 | -3.10149 | 1944 ft | 119 kts | 181° |
| 2026-04-22 18:15 | 58.72882 | -3.10093 | 1980 ft | 120 kts | 141° |
| 2026-04-22 18:15 | 58.72158 | -3.09248 | 1944 ft | 121 kts | 127° |
| 2026-04-22 18:15 | 58.71539 | -3.08140 | 1941 ft | 121 kts | 127° |
| 2026-04-22 18:16 | 58.70866 | -3.07183 | 1946 ft | 120 kts | 135° |
| 2026-04-22 18:16 | 58.70139 | -3.06400 | 1949 ft | 120 kts | 142° |
| 2026-04-22 18:16 | 58.69368 | -3.05783 | 1941 ft | 120 kts | 147° |
| 2026-04-22 18:16 | 58.68568 | -3.05397 | 1942 ft | 118 kts | 169° |
| 2026-04-22 18:17 | 58.67769 | -3.05710 | 1953 ft | 118 kts | 186° |
| 2026-04-22 18:17 | 58.67003 | -3.06266 | 1953 ft | 118 kts | 190° |
| 2026-04-22 18:17 | 58.66244 | -3.06872 | 1951 ft | 118 kts | 191° |
| 2026-04-22 18:17 | 58.65476 | -3.07477 | 1948 ft | 120 kts | 190° |
| 2026-04-22 18:18 | 58.64705 | -3.08065 | 1950 ft | 120 kts | 189° |
| 2026-04-22 18:18 | 58.63925 | -3.08644 | 1949 ft | 120 kts | 189° |
| 2026-04-22 18:18 | 58.63144 | -3.09205 | 1951 ft | 120 kts | 188° |
| 2026-04-22 18:18 | 58.62358 | -3.09758 | 1949 ft | 120 kts | 188° |
| 2026-04-22 18:19 | 58.61570 | -3.10303 | 1951 ft | 120 kts | 188° |
| 2026-04-22 18:19 | 58.60780 | -3.10844 | 1948 ft | 120 kts | 187° |
| 2026-04-22 18:19 | 58.59991 | -3.11376 | 1949 ft | 120 kts | 187° |
| 2026-04-22 18:19 | 58.59200 | -3.11903 | 1950 ft | 120 kts | 187° |
| 2026-04-22 18:20 | 58.58408 | -3.12431 | 1950 ft | 121 kts | 187° |
| 2026-04-22 18:20 | 58.57616 | -3.12959 | 1950 ft | 120 kts | 187° |
| 2026-04-22 18:20 | 58.56824 | -3.13485 | 1951 ft | 121 kts | 187° |
| 2026-04-22 18:20 | 58.56040 | -3.14000 | 1950 ft | 121 kts | 187° |
| 2026-04-22 18:21 | 58.55236 | -3.14528 | 1949 ft | 120 kts | 187° |
| 2026-04-22 18:21 | 58.54445 | -3.15045 | 1950 ft | 120 kts | 187° |
| 2026-04-22 18:21 | 58.53654 | -3.15564 | 1951 ft | 121 kts | 187° |
| 2026-04-22 18:21 | 58.52861 | -3.16083 | 1949 ft | 120 kts | 187° |
| 2026-04-22 18:22 | 58.52071 | -3.16601 | 1949 ft | 121 kts | 187° |
| 2026-04-22 18:22 | 58.51286 | -3.17115 | 1949 ft | 121 kts | 187° |
| 2026-04-22 18:22 | 58.50493 | -3.17634 | 1948 ft | 121 kts | 187° |
| 2026-04-22 18:22 | 58.49693 | -3.18159 | 1949 ft | 121 kts | 187° |
| 2026-04-22 18:23 | 58.48894 | -3.18685 | 1949 ft | 121 kts | 187° |
| 2026-04-22 18:23 | 58.48098 | -3.19206 | 1949 ft | 121 kts | 187° |
| 2026-04-22 18:23 | 58.47303 | -3.19727 | 1948 ft | 121 kts | 187° |
| 2026-04-22 18:24 | 58.45754 | -3.20967 | 1946 ft | 121 kts | 201° |
| 2026-04-22 18:24 | 58.45113 | -3.21992 | 1951 ft | 120 kts | 212° |
| 2026-04-22 18:24 | 58.43975 | -3.24308 | 1951 ft | 120 kts | 215° |
| 2026-04-22 18:25 | 58.43408 | -3.25477 | 1950 ft | 120 kts | 215° |
| 2026-04-22 18:25 | 58.42837 | -3.26638 | 1949 ft | 120 kts | 214° |
| 2026-04-22 18:25 | 58.42261 | -3.27790 | 1949 ft | 120 kts | 214° |
| 2026-04-22 18:26 | 58.41100 | -3.30073 | 1946 ft | 120 kts | 216° |
| 2026-04-22 18:26 | 58.40526 | -3.31160 | 1964 ft | 113 kts | 216° |
| 2026-04-22 18:26 | 58.39948 | -3.32212 | 1953 ft | 115 kts | 214° |
| 2026-04-22 18:26 | 58.39359 | -3.33261 | 1954 ft | 117 kts | 213° |
| 2026-04-22 18:27 | 58.38762 | -3.34313 | 1953 ft | 117 kts | 213° |
| 2026-04-22 18:27 | 58.38163 | -3.35364 | 1951 ft | 117 kts | 213° |
| 2026-04-22 18:27 | 58.37578 | -3.36384 | 1953 ft | 117 kts | 213° |
| 2026-04-22 18:27 | 58.36968 | -3.37448 | 1952 ft | 117 kts | 213° |
| 2026-04-22 18:28 | 58.36570 | -3.38137 | 1949 ft | 117 kts | 213° |
| 2026-04-22 18:28 | 58.35965 | -3.39185 | 1950 ft | 117 kts | 213° |
| 2026-04-22 18:28 | 58.35393 | -3.40291 | 1946 ft | 117 kts | 221° |
| 2026-04-22 18:28 | 58.34911 | -3.41524 | 1949 ft | 114 kts | 225° |
| 2026-04-22 18:29 | 58.34474 | -3.42758 | 1952 ft | 112 kts | 226° |
| 2026-04-22 18:29 | 58.34049 | -3.43985 | 1951 ft | 111 kts | 226° |
| 2026-04-22 18:29 | 58.33624 | -3.45210 | 1950 ft | 111 kts | 226° |
| 2026-04-22 18:29 | 58.33200 | -3.46434 | 1950 ft | 111 kts | 226° |
| 2026-04-22 18:30 | 58.32777 | -3.47654 | 1949 ft | 111 kts | 226° |
| 2026-04-22 18:30 | 58.31926 | -3.50095 | 1950 ft | 110 kts | 226° |
| 2026-04-22 18:30 | 58.31501 | -3.51311 | 1948 ft | 110 kts | 226° |
| 2026-04-22 18:31 | 58.31077 | -3.52523 | 1950 ft | 110 kts | 226° |
| 2026-04-22 18:31 | 58.30651 | -3.53738 | 1950 ft | 110 kts | 226° |
| 2026-04-22 18:31 | 58.30224 | -3.54951 | 1950 ft | 110 kts | 226° |
| 2026-04-22 18:31 | 58.29798 | -3.56162 | 1950 ft | 110 kts | 226° |
| 2026-04-22 18:32 | 58.29371 | -3.57374 | 1950 ft | 110 kts | 226° |
| 2026-04-22 18:32 | 58.28949 | -3.58571 | 1950 ft | 111 kts | 226° |
| 2026-04-22 18:32 | 58.28517 | -3.59801 | 1949 ft | 111 kts | 226° |
| 2026-04-22 18:32 | 58.28089 | -3.61018 | 1949 ft | 111 kts | 226° |
| 2026-04-22 18:33 | 58.27666 | -3.62217 | 1949 ft | 111 kts | 226° |
| 2026-04-22 18:33 | 58.27238 | -3.63432 | 1949 ft | 110 kts | 226° |
| 2026-04-22 18:33 | 58.26811 | -3.64642 | 1950 ft | 110 kts | 226° |
| 2026-04-22 18:33 | 58.26383 | -3.65853 | 1949 ft | 110 kts | 226° |
| 2026-04-22 18:34 | 58.25956 | -3.67062 | 1949 ft | 110 kts | 226° |
| 2026-04-22 18:34 | 58.25530 | -3.68269 | 1950 ft | 110 kts | 226° |
| 2026-04-22 18:34 | 58.25104 | -3.69480 | 1949 ft | 110 kts | 226° |
| 2026-04-22 18:34 | 58.24676 | -3.70693 | 1949 ft | 111 kts | 226° |
| 2026-04-22 18:35 | 58.24247 | -3.71908 | 1949 ft | 111 kts | 226° |
| 2026-04-22 18:35 | 58.23821 | -3.73119 | 1942 ft | 108 kts | 225° |
| 2026-04-22 18:35 | 58.23422 | -3.74261 | 1948 ft | 100 kts | 224° |
| 2026-04-22 18:35 | 58.23057 | -3.75334 | 1951 ft | 94 kts | 224° |
| 2026-04-22 18:36 | 58.22718 | -3.76372 | 1950 ft | 91 kts | 224° |
| 2026-04-22 18:36 | 58.22398 | -3.77387 | 1950 ft | 88 kts | 224° |
| 2026-04-22 18:36 | 58.22088 | -3.78395 | 1951 ft | 89 kts | 225° |
| 2026-04-22 18:36 | 58.21778 | -3.79409 | 1950 ft | 89 kts | 225° |
| 2026-04-22 18:37 | 58.21468 | -3.80429 | 1947 ft | 88 kts | 224° |
| 2026-04-22 18:37 | 58.21177 | -3.81430 | 1847 ft | 75 kts | 229° |
| 2026-04-22 18:37 | 58.20727 | -3.82666 | 1190 ft | 123 kts | 223° |
| 2026-04-22 18:37 | 58.20238 | -3.83925 | 1013 ft | 115 kts | 224° |
| 2026-04-22 18:38 | 58.19772 | -3.85246 | 1048 ft | 128 kts | 229° |
| 2026-04-22 18:38 | 58.19292 | -3.86687 | 1162 ft | 125 kts | 228° |
| 2026-04-22 18:38 | 58.18859 | -3.88070 | 1359 ft | 115 kts | 228° |
| 2026-04-22 18:39 | 58.18087 | -3.90660 | 1760 ft | 121 kts | 228° |
| 2026-04-22 18:39 | 58.17644 | -3.92099 | 1784 ft | 130 kts | 229° |
| 2026-04-22 18:39 | 58.17185 | -3.93544 | 1853 ft | 127 kts | 226° |
| 2026-04-22 18:39 | 58.16717 | -3.94941 | 1859 ft | 125 kts | 227° |
| 2026-04-22 18:40 | 58.16245 | -3.96309 | 1852 ft | 124 kts | 226° |
| 2026-04-22 18:40 | 58.15758 | -3.97667 | 1831 ft | 125 kts | 226° |
| 2026-04-22 18:40 | 58.15267 | -3.99022 | 1780 ft | 127 kts | 226° |
| 2026-04-22 18:40 | 58.14774 | -4.00389 | 1771 ft | 124 kts | 226° |
| 2026-04-22 18:41 | 58.14290 | -4.01719 | 1746 ft | 125 kts | 225° |
| 2026-04-22 18:41 | 58.13790 | -4.03089 | 1733 ft | 125 kts | 225° |
| 2026-04-22 18:41 | 58.13296 | -4.04435 | 1712 ft | 124 kts | 225° |
| 2026-04-22 18:41 | 58.12811 | -4.05757 | 1689 ft | 124 kts | 225° |
| 2026-04-22 18:42 | 58.12313 | -4.07118 | 1668 ft | 124 kts | 225° |
| 2026-04-22 18:42 | 58.11829 | -4.08447 | 1647 ft | 124 kts | 225° |
| 2026-04-22 18:42 | 58.11334 | -4.09817 | 1625 ft | 125 kts | 226° |
| 2026-04-22 18:42 | 58.10851 | -4.11155 | 1560 ft | 124 kts | 225° |
| 2026-04-22 18:43 | 58.10360 | -4.12486 | 1467 ft | 123 kts | 224° |
| 2026-04-22 18:43 | 58.09867 | -4.13817 | 1357 ft | 124 kts | 224° |
| 2026-04-22 18:43 | 58.09327 | -4.15021 | 1254 ft | 115 kts | 213° |
| 2026-04-22 18:43 | 58.08762 | -4.16222 | 1032 ft | 125 kts | 223° |
| 2026-04-22 18:44 | 58.08258 | -4.17530 | 1168 ft | 128 kts | 223° |
| 2026-04-22 18:44 | 58.07800 | -4.18844 | 1538 ft | 121 kts | 224° |
| 2026-04-22 18:44 | 58.07223 | -4.20170 | 1530 ft | 142 kts | 195° |
| 2026-04-22 18:44 | 58.06212 | -4.20449 | 1360 ft | 157 kts | 158° |
| 2026-04-22 18:45 | 58.05598 | -4.20446 | 1400 ft | 98 kts | 182° |
| 2026-04-22 18:45 | 58.05604 | -4.20446 | 736 ft | 0 kts | 180° |